sensor_id;sensor_type;location;lat;lon;timestamp;pressure;altitude;pressure_sealevel;temperature;humidity
58879;BME280;44660;42.664;23.266;2022-12-05T00:01:21;95457.16;;;5.65;72.79
58879;BME280;44660;42.664;23.266;2022-12-05T00:03:47;95463.84;;;5.61;73.36
58879;BME280;44660;42.664;23.266;2022-12-05T00:06:13;95437.47;;;5.39;73.39
58879;BME280;44660;42.664;23.266;2022-12-05T00:08:39;95465.59;;;5.53;73.57
58879;BME280;44660;42.664;23.266;2022-12-05T00:11:12;95336.06;;;4.77;73.56
58879;BME280;44660;42.664;23.266;2022-12-05T00:13:39;95443.22;;;5.49;73.34
58879;BME280;44660;42.664;23.266;2022-12-05T00:16:09;95447.56;;;5.57;73.36
58879;BME280;44660;42.664;23.266;2022-12-05T00:18:36;95463.41;;;5.57;73.33
58879;BME280;44660;42.664;23.266;2022-12-05T00:21:02;95427.72;;;5.39;73.19
58879;BME280;44660;42.664;23.266;2022-12-05T00:23:29;95459.06;;;5.49;73.32
58879;BME280;44660;42.664;23.266;2022-12-05T00:25:54;95446.88;;;5.48;73.31
58879;BME280;44660;42.664;23.266;2022-12-05T00:28:20;95457.31;;;5.56;73.17
58879;BME280;44660;42.664;23.266;2022-12-05T00:30:45;95439.91;;;5.40;73.37
58879;BME280;44660;42.664;23.266;2022-12-05T00:33:11;95466.13;;;5.64;73.35
58879;BME280;44660;42.664;23.266;2022-12-05T00:35:36;95350.53;;;4.87;72.95
58879;BME280;44660;42.664;23.266;2022-12-05T00:38:02;95470.06;;;5.53;73.20
58879;BME280;44660;42.664;23.266;2022-12-05T00:40:27;95470.13;;;5.60;73.31
58879;BME280;44660;42.664;23.266;2022-12-05T00:42:52;95445.25;;;5.47;73.21
58879;BME280;44660;42.664;23.266;2022-12-05T00:45:18;95446.13;;;5.54;72.89
58879;BME280;44660;42.664;23.266;2022-12-05T00:47:43;95441.22;;;5.51;72.94
58879;BME280;44660;42.664;23.266;2022-12-05T00:50:09;95454.28;;;5.60;72.84
58879;BME280;44660;42.664;23.266;2022-12-05T00:52:34;95464.78;;;5.75;72.75
58879;BME280;44660;42.664;23.266;2022-12-05T00:55:00;95430.19;;;5.41;72.80
58879;BME280;44660;42.664;23.266;2022-12-05T00:57:26;95453.47;;;5.59;72.83
58879;BME280;44660;42.664;23.266;2022-12-05T00:59:51;95459.13;;;5.56;72.93
58879;BME280;44660;42.664;23.266;2022-12-05T01:02:17;95453.91;;;5.63;72.91
58879;BME280;44660;42.664;23.266;2022-12-05T01:04:42;95450.34;;;5.70;72.68
58879;BME280;44660;42.664;23.266;2022-12-05T01:07:08;95417.34;;;5.38;73.09
58879;BME280;44660;42.664;23.266;2022-12-05T01:09:34;95446.75;;;5.56;73.57
58879;BME280;44660;42.664;23.266;2022-12-05T01:11:59;95452.41;;;5.53;73.52
58879;BME280;44660;42.664;23.266;2022-12-05T01:14:25;95446.13;;;5.54;73.49
58879;BME280;44660;42.664;23.266;2022-12-05T01:16:53;95456.38;;;5.64;73.26
58879;BME280;44660;42.664;23.266;2022-12-05T01:19:27;95433.56;;;5.56;73.32
58879;BME280;44660;42.664;23.266;2022-12-05T01:21:54;95454.91;;;5.62;73.09
58879;BME280;44660;42.664;23.266;2022-12-05T01:24:21;95444.16;;;5.63;72.79
58879;BME280;44660;42.664;23.266;2022-12-05T01:26:47;95440.47;;;5.58;73.17
58879;BME280;44660;42.664;23.266;2022-12-05T01:29:14;95423.22;;;5.33;73.80
58879;BME280;44660;42.664;23.266;2022-12-05T01:31:41;95393.56;;;5.10;73.79
58879;BME280;44660;42.664;23.266;2022-12-05T01:34:09;95440.03;;;5.32;74.27
58879;BME280;44660;42.664;23.266;2022-12-05T01:36:35;95422.69;;;5.23;74.40
58879;BME280;44660;42.664;23.266;2022-12-05T01:39:01;95428.28;;;5.35;74.27
58879;BME280;44660;42.664;23.266;2022-12-05T01:41:33;95414.47;;;5.33;74.20
58879;BME280;44660;42.664;23.266;2022-12-05T01:46:47;95427.94;;;5.23;75.12
58879;BME280;44660;42.664;23.266;2022-12-05T01:49:18;95422.06;;;5.21;75.50
58879;BME280;44660;42.664;23.266;2022-12-05T01:52:10;95428.84;;;5.30;75.22
58879;BME280;44660;42.664;23.266;2022-12-05T01:54:34;95403.31;;;5.31;74.55
58879;BME280;44660;42.664;23.266;2022-12-05T01:57:03;95413.84;;;5.31;74.46
58879;BME280;44660;42.664;23.266;2022-12-05T01:59:38;95381.81;;;5.12;74.47
58879;BME280;44660;42.664;23.266;2022-12-05T02:02:07;95421.78;;;5.31;74.70
58879;BME280;44660;42.664;23.266;2022-12-05T02:04:37;95395.44;;;5.16;74.28
58879;BME280;44660;42.664;23.266;2022-12-05T02:07:06;95428.84;;;5.30;74.32
58879;BME280;44660;42.664;23.266;2022-12-05T02:09:31;95368.19;;;4.87;74.83
58879;BME280;44660;42.664;23.266;2022-12-05T02:11:59;95430.28;;;5.33;74.82
58879;BME280;44660;42.664;23.266;2022-12-05T02:17:25;95419.63;;;5.41;73.95
58879;BME280;44660;42.664;23.266;2022-12-05T02:30:53;95431.16;;;5.62;73.37
58879;BME280;44660;42.664;23.266;2022-12-05T02:33:44;95426.41;;;5.50;73.75
58879;BME280;44660;42.664;23.266;2022-12-05T02:37:13;95427.66;;;5.54;73.46
58879;BME280;44660;42.664;23.266;2022-12-05T02:39:34;95417.09;;;5.33;74.05
58879;BME280;44660;42.664;23.266;2022-12-05T02:42:12;95326.19;;;4.64;74.38
58879;BME280;44660;42.664;23.266;2022-12-05T02:44:46;95408.78;;;4.93;75.22
58879;BME280;44660;42.664;23.266;2022-12-05T02:47:17;95395.41;;;4.72;75.76
58879;BME280;44660;42.664;23.266;2022-12-05T02:49:44;95359.28;;;4.36;76.19
58879;BME280;44660;42.664;23.266;2022-12-05T02:52:13;95410.47;;;4.79;76.44
58879;BME280;44660;42.664;23.266;2022-12-05T02:54:42;95401.38;;;4.81;76.28
58879;BME280;44660;42.664;23.266;2022-12-05T02:57:09;95383.69;;;4.75;75.79
58879;BME280;44660;42.664;23.266;2022-12-05T02:59:36;95385.13;;;4.78;75.83
58879;BME280;44660;42.664;23.266;2022-12-05T03:02:02;95409.41;;;4.95;75.96
58879;BME280;44660;42.664;23.266;2022-12-05T03:04:29;95393.59;;;4.95;75.48
58879;BME280;44660;42.664;23.266;2022-12-05T03:06:58;95399.03;;;5.08;75.31
58879;BME280;44660;42.664;23.266;2022-12-05T03:09:49;95407.69;;;5.23;75.04
58879;BME280;44660;42.664;23.266;2022-12-05T03:14:48;95411.59;;;5.28;74.84
58879;BME280;44660;42.664;23.266;2022-12-05T03:17:22;95354.31;;;5.00;74.27
58879;BME280;44660;42.664;23.266;2022-12-05T03:19:54;95409.38;;;5.31;74.62
58879;BME280;44660;42.664;23.266;2022-12-05T03:22:29;95407.38;;;5.33;74.73
58879;BME280;44660;42.664;23.266;2022-12-05T03:24:58;95404.91;;;5.32;74.34
58879;BME280;44660;42.664;23.266;2022-12-05T03:29:58;95418.00;;;5.40;74.45
58879;BME280;44660;42.664;23.266;2022-12-05T03:35:20;95327.22;;;4.84;74.68
58879;BME280;44660;42.664;23.266;2022-12-05T03:40:20;95419.13;;;5.52;74.06
58879;BME280;44660;42.664;23.266;2022-12-05T03:43:26;95421.53;;;5.47;74.29
58879;BME280;44660;42.664;23.266;2022-12-05T03:46:17;95370.28;;;5.13;74.25
58879;BME280;44660;42.664;23.266;2022-12-05T03:51:16;95411.88;;;5.39;74.29
58879;BME280;44660;42.664;23.266;2022-12-05T03:53:47;95415.34;;;5.40;74.42
58879;BME280;44660;42.664;23.266;2022-12-05T03:56:18;95410.38;;;5.30;74.27
58879;BME280;44660;42.664;23.266;2022-12-05T03:59:08;95426.16;;;5.45;74.28
58879;BME280;44660;42.664;23.266;2022-12-05T04:01:37;95425.28;;;5.38;74.54
58879;BME280;44660;42.664;23.266;2022-12-05T04:04:12;95387.59;;;5.22;74.57
58879;BME280;44660;42.664;23.266;2022-12-05T04:06:40;95421.63;;;5.39;74.38
58879;BME280;44660;42.664;23.266;2022-12-05T04:09:11;95387.50;;;5.31;74.17
58879;BME280;44660;42.664;23.266;2022-12-05T04:11:44;95403.56;;;5.36;73.92
58879;BME280;44660;42.664;23.266;2022-12-05T04:14:18;95361.63;;;5.19;74.15
58879;BME280;44660;42.664;23.266;2022-12-05T04:16:53;95348.44;;;5.19;73.88
58879;BME280;44660;42.664;23.266;2022-12-05T04:22:55;95374.03;;;5.47;73.59
58879;BME280;44660;42.664;23.266;2022-12-05T04:25:22;95391.72;;;5.53;73.51
58879;BME280;44660;42.664;23.266;2022-12-05T04:30:25;95384.31;;;5.42;74.21
58879;BME280;44660;42.664;23.266;2022-12-05T04:35:36;95379.69;;;5.44;73.88
58879;BME280;44660;42.664;23.266;2022-12-05T04:38:30;95381.06;;;5.40;73.80
58879;BME280;44660;42.664;23.266;2022-12-05T04:41:00;95396.91;;;5.40;73.92
58879;BME280;44660;42.664;23.266;2022-12-05T04:43:29;95379.75;;;5.29;74.12
58879;BME280;44660;42.664;23.266;2022-12-05T04:45:56;95384.66;;;5.32;74.08
58879;BME280;44660;42.664;23.266;2022-12-05T04:48:24;95419.72;;;5.54;74.01
58879;BME280;44660;42.664;23.266;2022-12-05T04:50:52;95381.75;;;5.27;73.91
58879;BME280;44660;42.664;23.266;2022-12-05T04:53:21;95288.38;;;4.71;73.74
58879;BME280;44660;42.664;23.266;2022-12-05T04:55:51;95371.13;;;5.20;73.91
58879;BME280;44660;42.664;23.266;2022-12-05T04:58:20;95408.31;;;5.47;73.86
58879;BME280;44660;42.664;23.266;2022-12-05T05:03:40;95406.88;;;5.45;73.97
58879;BME280;44660;42.664;23.266;2022-12-05T05:06:08;95388.72;;;5.35;73.72
58879;BME280;44660;42.664;23.266;2022-12-05T05:08:34;95420.97;;;5.59;73.79
58879;BME280;44660;42.664;23.266;2022-12-05T05:11:13;95430.41;;;5.68;73.55
58879;BME280;44660;42.664;23.266;2022-12-05T05:13:40;95412.31;;;5.43;73.66
58879;BME280;44660;42.664;23.266;2022-12-05T05:16:06;95442.53;;;5.62;73.61
58879;BME280;44660;42.664;23.266;2022-12-05T05:18:31;95429.53;;;5.61;73.49
58879;BME280;44660;42.664;23.266;2022-12-05T05:20:58;95439.88;;;5.62;73.23
58879;BME280;44660;42.664;23.266;2022-12-05T05:23:23;95447.44;;;5.65;73.32
58879;BME280;44660;42.664;23.266;2022-12-05T05:25:54;95428.16;;;5.43;73.55
58879;BME280;44660;42.664;23.266;2022-12-05T05:28:20;95455.97;;;5.67;73.50
58879;BME280;44660;42.664;23.266;2022-12-05T05:30:46;95448.28;;;5.72;73.13
58879;BME280;44660;42.664;23.266;2022-12-05T05:33:12;95455.41;;;5.72;73.16
58879;BME280;44660;42.664;23.266;2022-12-05T05:35:38;95440.97;;;5.46;73.57
58879;BME280;44660;42.664;23.266;2022-12-05T05:38:03;95405.03;;;5.02;74.42
58879;BME280;44660;42.664;23.266;2022-12-05T05:40:29;95418.09;;;5.10;74.62
58879;BME280;44660;42.664;23.266;2022-12-05T05:42:54;95432.31;;;5.31;74.49
58879;BME280;44660;42.664;23.266;2022-12-05T05:45:20;95421.50;;;5.26;74.34
58879;BME280;44660;42.664;23.266;2022-12-05T05:47:47;95412.31;;;5.21;74.54
58879;BME280;44660;42.664;23.266;2022-12-05T05:50:14;95411.34;;;5.22;74.08
58879;BME280;44660;42.664;23.266;2022-12-05T05:52:39;95447.75;;;5.55;73.75
58879;BME280;44660;42.664;23.266;2022-12-05T05:55:06;95422.38;;;5.33;73.64
58879;BME280;44660;42.664;23.266;2022-12-05T05:57:33;95437.34;;;5.47;73.35
58879;BME280;44660;42.664;23.266;2022-12-05T05:59:58;95425.91;;;5.40;73.42
58879;BME280;44660;42.664;23.266;2022-12-05T06:02:24;95466.16;;;5.70;73.14
58879;BME280;44660;42.664;23.266;2022-12-05T06:04:49;95458.94;;;5.79;72.92
58879;BME280;44660;42.664;23.266;2022-12-05T06:07:15;95468.28;;;5.82;72.85
58879;BME280;44660;42.664;23.266;2022-12-05T06:09:40;95449.56;;;5.77;72.36
58879;BME280;44660;42.664;23.266;2022-12-05T06:12:06;95469.41;;;5.94;72.30
58879;BME280;44660;42.664;23.266;2022-12-05T06:14:32;95422.44;;;5.61;71.84
58879;BME280;44660;42.664;23.266;2022-12-05T06:16:57;95440.94;;;5.61;72.38
58879;BME280;44660;42.664;23.266;2022-12-05T06:19:23;95429.09;;;5.57;72.33
58879;BME280;44660;42.664;23.266;2022-12-05T06:21:49;95451.13;;;5.71;72.38
58879;BME280;44660;42.664;23.266;2022-12-05T06:24:15;95457.94;;;5.80;72.56
58879;BME280;44660;42.664;23.266;2022-12-05T06:26:41;95450.78;;;5.74;72.64
58879;BME280;44660;42.664;23.266;2022-12-05T06:29:07;95465.06;;;5.86;72.41
58879;BME280;44660;42.664;23.266;2022-12-05T06:31:33;95458.03;;;5.94;72.13
58879;BME280;44660;42.664;23.266;2022-12-05T06:34:00;95463.56;;;5.99;72.08
58879;BME280;44660;42.664;23.266;2022-12-05T06:36:26;95412.06;;;5.60;72.11
58879;BME280;44660;42.664;23.266;2022-12-05T06:38:56;95476.00;;;6.05;72.08
58879;BME280;44660;42.664;23.266;2022-12-05T06:41:22;95478.47;;;6.07;71.95
58879;BME280;44660;42.664;23.266;2022-12-05T06:43:55;95462.56;;;6.00;72.02
58879;BME280;44660;42.664;23.266;2022-12-05T06:46:21;95389.28;;;5.52;72.14
58879;BME280;44660;42.664;23.266;2022-12-05T06:48:47;95465.00;;;6.01;71.84
58879;BME280;44660;42.664;23.266;2022-12-05T06:51:15;95463.69;;;5.91;72.50
58879;BME280;44660;42.664;23.266;2022-12-05T06:53:41;95467.47;;;5.81;73.00
58879;BME280;44660;42.664;23.266;2022-12-05T06:56:10;95451.28;;;5.63;73.26
58879;BME280;44660;42.664;23.266;2022-12-05T06:58:36;95446.81;;;5.63;73.06
58879;BME280;44660;42.664;23.266;2022-12-05T07:01:01;95472.38;;;5.84;72.78
58879;BME280;44660;42.664;23.266;2022-12-05T07:03:49;95476.91;;;5.91;72.60
58879;BME280;44660;42.664;23.266;2022-12-05T07:06:15;95470.34;;;5.86;72.66
58879;BME280;44660;42.664;23.266;2022-12-05T07:08:41;95472.34;;;5.99;72.39
58879;BME280;44660;42.664;23.266;2022-12-05T07:11:07;95476.00;;;6.05;72.03
58879;BME280;44660;42.664;23.266;2022-12-05T07:13:33;95477.84;;;6.04;72.16
58879;BME280;44660;42.664;23.266;2022-12-05T07:15:59;95464.75;;;5.96;72.26
58879;BME280;44660;42.664;23.266;2022-12-05T07:18:25;95453.25;;;5.82;72.60
58879;BME280;44660;42.664;23.266;2022-12-05T07:21:17;95477.63;;;5.99;72.73
58879;BME280;44660;42.664;23.266;2022-12-05T07:23:44;95484.47;;;6.22;72.58
58879;BME280;44660;42.664;23.266;2022-12-05T07:26:13;95470.59;;;6.13;72.24
58879;BME280;44660;42.664;23.266;2022-12-05T07:28:39;95475.97;;;6.27;72.05
58879;BME280;44660;42.664;23.266;2022-12-05T07:31:07;95467.28;;;6.33;71.46
58879;BME280;44660;42.664;23.266;2022-12-05T07:33:33;95491.63;;;6.57;71.37
58879;BME280;44660;42.664;23.266;2022-12-05T07:36:10;95461.47;;;6.44;71.15
58879;BME280;44660;42.664;23.266;2022-12-05T07:38:36;95488.00;;;6.36;70.82
58879;BME280;44660;42.664;23.266;2022-12-05T07:41:05;95494.69;;;6.32;71.75
58879;BME280;44660;42.664;23.266;2022-12-05T07:43:32;95492.44;;;6.29;71.97
58879;BME280;44660;42.664;23.266;2022-12-05T07:46:04;95480.28;;;6.34;71.32
58879;BME280;44660;42.664;23.266;2022-12-05T07:48:30;95493.41;;;6.49;71.01
58879;BME280;44660;42.664;23.266;2022-12-05T07:51:03;95491.16;;;6.46;70.93
58879;BME280;44660;42.664;23.266;2022-12-05T07:53:30;95480.81;;;6.23;70.70
58879;BME280;44660;42.664;23.266;2022-12-05T07:56:03;95494.69;;;6.32;71.14
58879;BME280;44660;42.664;23.266;2022-12-05T07:58:30;95468.91;;;6.05;71.08
58879;BME280;44660;42.664;23.266;2022-12-05T08:00:57;95475.50;;;6.16;71.19
58879;BME280;44660;42.664;23.266;2022-12-05T08:03:23;95472.69;;;6.25;71.16
58879;BME280;44660;42.664;23.266;2022-12-05T08:05:49;95455.66;;;6.27;71.19
58879;BME280;44660;42.664;23.266;2022-12-05T08:08:14;95478.31;;;6.43;71.00
58879;BME280;44660;42.664;23.266;2022-12-05T08:10:40;95448.44;;;6.14;71.03
58879;BME280;44660;42.664;23.266;2022-12-05T08:13:06;95470.16;;;6.38;71.00
58879;BME280;44660;42.664;23.266;2022-12-05T08:15:34;95479.19;;;6.50;70.80
58879;BME280;44660;42.664;23.266;2022-12-05T08:18:00;95495.31;;;6.69;70.61
58879;BME280;44660;42.664;23.266;2022-12-05T08:20:26;95487.22;;;6.70;70.50
58879;BME280;44660;42.664;23.266;2022-12-05T08:22:51;95473.34;;;6.62;70.61
58879;BME280;44660;42.664;23.266;2022-12-05T08:25:18;95447.19;;;6.38;70.42
58879;BME280;44660;42.664;23.266;2022-12-05T08:27:44;95479.84;;;6.59;70.77
58879;BME280;44660;42.664;23.266;2022-12-05T08:30:09;95467.84;;;6.57;70.53
58879;BME280;44660;42.664;23.266;2022-12-05T08:32:35;95485.63;;;6.76;70.22
58879;BME280;44660;42.664;23.266;2022-12-05T08:35:00;95475.34;;;6.60;70.20
58879;BME280;44660;42.664;23.266;2022-12-05T08:37:26;95491.69;;;6.70;70.06
58879;BME280;44660;42.664;23.266;2022-12-05T08:39:51;95479.25;;;6.64;69.95
58879;BME280;44660;42.664;23.266;2022-12-05T08:42:17;95493.22;;;6.93;69.53
58879;BME280;44660;42.664;23.266;2022-12-05T08:44:42;95442.47;;;6.69;69.43
58879;BME280;44660;42.664;23.266;2022-12-05T08:47:07;95483.41;;;6.80;69.57
58879;BME280;44660;42.664;23.266;2022-12-05T08:49:33;95430.06;;;6.28;69.41
58879;BME280;44660;42.664;23.266;2022-12-05T08:51:58;95473.66;;;6.45;70.17
58879;BME280;44660;42.664;23.266;2022-12-05T08:54:24;95460.88;;;6.20;70.26
58879;BME280;44660;42.664;23.266;2022-12-05T08:56:50;95496.38;;;6.40;70.21
58879;BME280;44660;42.664;23.266;2022-12-05T08:59:16;95494.41;;;6.48;70.07
58879;BME280;44660;42.664;23.266;2022-12-05T09:01:41;95453.16;;;6.19;69.83
58879;BME280;44660;42.664;23.266;2022-12-05T09:04:06;95474.03;;;6.42;69.78
58879;BME280;44660;42.664;23.266;2022-12-05T09:06:33;95453.56;;;6.16;70.18
58879;BME280;44660;42.664;23.266;2022-12-05T09:09:03;95473.47;;;6.47;69.86
58879;BME280;44660;42.664;23.266;2022-12-05T09:11:32;95491.41;;;6.58;69.75
58879;BME280;44660;42.664;23.266;2022-12-05T09:13:59;95487.03;;;6.72;69.39
58879;BME280;44660;42.664;23.266;2022-12-05T09:16:30;95490.34;;;6.88;69.29
58879;BME280;44660;42.664;23.266;2022-12-05T09:18:57;95475.28;;;6.88;68.65
58879;BME280;44660;42.664;23.266;2022-12-05T09:21:25;95479.22;;;7.06;68.45
58879;BME280;44660;42.664;23.266;2022-12-05T09:23:52;95478.44;;;7.05;68.13
58879;BME280;44660;42.664;23.266;2022-12-05T09:26:20;95475.13;;;6.96;68.18
58879;BME280;44660;42.664;23.266;2022-12-05T09:28:47;95460.25;;;6.89;67.99
58879;BME280;44660;42.664;23.266;2022-12-05T09:31:18;95480.06;;;7.06;67.75
58879;BME280;44660;42.664;23.266;2022-12-05T09:33:45;95480.09;;;7.13;67.62
58879;BME280;44660;42.664;23.266;2022-12-05T09:38:38;95473.59;;;7.22;67.51
58879;BME280;44660;42.664;23.266;2022-12-05T09:41:26;95464.47;;;7.31;67.24
58879;BME280;44660;42.664;23.266;2022-12-05T09:50:12;95458.94;;;7.19;67.10
58879;BME280;44660;42.664;23.266;2022-12-05T09:52:50;95395.78;;;6.90;66.47
58879;BME280;44660;42.664;23.266;2022-12-05T09:55:18;95444.91;;;7.32;66.27
58879;BME280;44660;42.664;23.266;2022-12-05T09:57:49;95439.25;;;7.29;66.24
58879;BME280;44660;42.664;23.266;2022-12-05T10:00:15;95409.88;;;7.17;66.12
58879;BME280;44660;42.664;23.266;2022-12-05T10:11:02;95443.16;;;7.53;65.78
58879;BME280;44660;42.664;23.266;2022-12-05T10:14:01;95429.88;;;7.40;65.88
58879;BME280;44660;42.664;23.266;2022-12-05T10:16:34;95424.19;;;7.36;65.80
58879;BME280;44660;42.664;23.266;2022-12-05T10:19:05;95412.16;;;7.20;66.13
58879;BME280;44660;42.664;23.266;2022-12-05T10:21:50;95418.28;;;7.34;66.46
58879;BME280;44660;42.664;23.266;2022-12-05T10:24:32;95431.31;;;7.29;66.47
58879;BME280;44660;42.664;23.266;2022-12-05T10:27:01;95421.53;;;7.36;66.31
58879;BME280;44660;42.664;23.266;2022-12-05T10:29:34;95407.88;;;7.19;66.22
58879;BME280;44660;42.664;23.266;2022-12-05T10:32:06;95417.06;;;7.43;66.10
58879;BME280;44660;42.664;23.266;2022-12-05T10:34:39;95428.88;;;7.47;66.17
58879;BME280;44660;42.664;23.266;2022-12-05T10:37:13;95410.13;;;7.29;66.33
58879;BME280;44660;42.664;23.266;2022-12-05T10:39:43;95423.13;;;7.17;66.18
58879;BME280;44660;42.664;23.266;2022-12-05T10:42:23;95417.44;;;7.20;66.37
58879;BME280;44660;42.664;23.266;2022-12-05T10:44:54;95406.03;;;7.19;66.53
58879;BME280;44660;42.664;23.266;2022-12-05T10:47:21;95381.19;;;7.07;66.58
58879;BME280;44660;42.664;23.266;2022-12-05T10:49:47;95358.00;;;7.02;66.41
58879;BME280;44660;42.664;23.266;2022-12-05T10:52:13;95416.59;;;7.06;66.98
58879;BME280;44660;42.664;23.266;2022-12-05T10:54:57;95417.75;;;6.90;67.62
58879;BME280;44660;42.664;23.266;2022-12-05T10:57:26;95410.81;;;6.82;67.67
58879;BME280;44660;42.664;23.266;2022-12-05T10:59:54;95368.69;;;6.74;67.58
58879;BME280;44660;42.664;23.266;2022-12-05T11:02:29;95413.75;;;7.14;67.26
58879;BME280;44660;42.664;23.266;2022-12-05T11:04:56;95408.09;;;7.24;66.86
58879;BME280;44660;42.664;23.266;2022-12-05T11:07:30;95399.72;;;7.27;66.88
58879;BME280;44660;42.664;23.266;2022-12-05T11:09:57;95394.22;;;7.15;67.07
58879;BME280;44660;42.664;23.266;2022-12-05T11:15:20;95395.81;;;7.03;67.52
58879;BME280;44660;42.664;23.266;2022-12-05T11:17:48;95384.50;;;6.61;68.46
58879;BME280;44660;42.664;23.266;2022-12-05T11:22:46;95375.38;;;6.70;68.55
58879;BME280;44660;42.664;23.266;2022-12-05T11:27:49;95380.72;;;6.83;68.54
58879;BME280;44660;42.664;23.266;2022-12-05T11:30:20;95388.50;;;7.05;68.16
58879;BME280;44660;42.664;23.266;2022-12-05T11:32:46;95395.25;;;7.14;67.72
58879;BME280;44660;42.664;23.266;2022-12-05T11:37:56;95364.13;;;7.16;67.45
58879;BME280;44660;42.664;23.266;2022-12-05T11:40:55;95367.38;;;7.18;67.50
58879;BME280;44660;42.664;23.266;2022-12-05T11:56:47;95343.16;;;7.28;67.07
58879;BME280;44660;42.664;23.266;2022-12-05T12:12:38;95280.22;;;6.57;68.33
58879;BME280;44660;42.664;23.266;2022-12-05T12:33:25;95299.22;;;6.32;70.60
58879;BME280;44660;42.664;23.266;2022-12-05T12:38:24;95275.19;;;6.13;71.12
58879;BME280;44660;42.664;23.266;2022-12-05T12:41:08;95307.41;;;6.44;71.14
58879;BME280;44660;42.664;23.266;2022-12-05T12:46:51;95270.94;;;6.19;71.28
58879;BME280;44660;42.664;23.266;2022-12-05T12:52:14;95305.84;;;6.63;70.91
58879;BME280;44660;42.664;23.266;2022-12-05T12:54:58;95309.09;;;6.65;70.91
58879;BME280;44660;42.664;23.266;2022-12-05T13:03:09;95300.50;;;6.43;71.34
58879;BME280;44660;42.664;23.266;2022-12-05T13:06:28;95289.44;;;6.26;71.57
58879;BME280;44660;42.664;23.266;2022-12-05T13:08:47;95303.09;;;6.36;71.48
58879;BME280;44660;42.664;23.266;2022-12-05T13:11:15;95307.38;;;6.37;71.83
58879;BME280;44660;42.664;23.266;2022-12-05T13:13:46;95279.31;;;6.36;71.18
58879;BME280;44660;42.664;23.266;2022-12-05T13:16:31;95266.28;;;6.21;71.45
58879;BME280;44660;42.664;23.266;2022-12-05T13:18:58;95284.22;;;6.39;71.23
58879;BME280;44660;42.664;23.266;2022-12-05T13:21:25;95291.53;;;6.37;71.29
58879;BME280;44660;42.664;23.266;2022-12-05T13:23:53;95310.00;;;6.37;71.61
58879;BME280;44660;42.664;23.266;2022-12-05T13:26:30;95300.00;;;6.19;71.91
58879;BME280;44660;42.664;23.266;2022-12-05T13:28:58;95302.28;;;6.29;72.00
58879;BME280;44660;42.664;23.266;2022-12-05T13:31:42;95308.69;;;6.13;72.99
58879;BME280;44660;42.664;23.266;2022-12-05T13:36:55;95317.13;;;6.30;72.72
58879;BME280;44660;42.664;23.266;2022-12-05T13:39:40;95318.25;;;6.14;73.12
58879;BME280;44660;42.664;23.266;2022-12-05T13:42:27;95293.31;;;5.88;73.47
58879;BME280;44660;42.664;23.266;2022-12-05T13:45:17;95313.31;;;6.04;73.61
58879;BME280;44660;42.664;23.266;2022-12-05T13:53:19;95274.94;;;6.08;72.83
58879;BME280;44660;42.664;23.266;2022-12-05T13:55:57;95314.19;;;6.11;73.75
58879;BME280;44660;42.664;23.266;2022-12-05T14:00:49;95301.59;;;6.13;73.22
58879;BME280;44660;42.664;23.266;2022-12-05T14:05:46;95311.59;;;5.89;74.14
58879;BME280;44660;42.664;23.266;2022-12-05T14:18:56;95324.19;;;6.23;73.76
58879;BME280;44660;42.664;23.266;2022-12-05T14:21:40;95320.09;;;6.13;73.92
58879;BME280;44660;42.664;23.266;2022-12-05T14:24:25;95321.47;;;6.09;74.21
58879;BME280;44660;42.664;23.266;2022-12-05T14:32:27;95308.66;;;6.06;73.85
58879;BME280;44660;42.664;23.266;2022-12-05T14:39:51;95325.09;;;6.01;74.11
58879;BME280;44660;42.664;23.266;2022-12-05T14:45:27;95326.13;;;5.79;74.61
58879;BME280;44660;42.664;23.266;2022-12-05T14:48:01;95320.44;;;5.75;75.13
58879;BME280;44660;42.664;23.266;2022-12-05T14:50:45;95322.50;;;5.80;75.25
58879;BME280;44660;42.664;23.266;2022-12-05T14:58:36;95331.84;;;5.82;75.33
58879;BME280;44660;42.664;23.266;2022-12-05T15:01:07;95323.22;;;5.67;75.54
58879;BME280;44660;42.664;23.266;2022-12-05T15:03:49;95331.28;;;5.59;75.74
58879;BME280;44660;42.664;23.266;2022-12-05T15:06:20;95301.09;;;5.39;75.91
58879;BME280;44660;42.664;23.266;2022-12-05T15:08:48;95336.03;;;5.70;75.94
58879;BME280;44660;42.664;23.266;2022-12-05T15:11:19;95306.88;;;5.50;75.87
58879;BME280;44660;42.664;23.266;2022-12-05T15:16:37;95289.84;;;5.52;75.33
58879;BME280;44660;42.664;23.266;2022-12-05T15:19:14;95323.22;;;5.67;75.81
58879;BME280;44660;42.664;23.266;2022-12-05T15:21:45;95335.25;;;5.76;76.24
58879;BME280;44660;42.664;23.266;2022-12-05T15:24:14;95330.28;;;5.60;76.79
58879;BME280;44660;42.664;23.266;2022-12-05T15:26:45;95325.63;;;5.62;76.87
58879;BME280;44660;42.664;23.266;2022-12-05T15:29:16;95322.78;;;5.63;76.97
58879;BME280;44660;42.664;23.266;2022-12-05T15:39:26;95299.63;;;5.59;76.96
58879;BME280;44660;42.664;23.266;2022-12-05T15:41:54;95303.09;;;5.59;76.78
58879;BME280;44660;42.664;23.266;2022-12-05T15:44:21;95308.78;;;5.63;76.77
58879;BME280;44660;42.664;23.266;2022-12-05T15:46:51;95282.50;;;5.48;76.28
58879;BME280;44660;42.664;23.266;2022-12-05T15:49:25;95315.94;;;5.69;76.59
58879;BME280;44660;42.664;23.266;2022-12-05T15:51:55;95302.41;;;5.50;76.93
58879;BME280;44660;42.664;23.266;2022-12-05T15:54:27;95311.44;;;5.63;76.88
58879;BME280;44660;42.664;23.266;2022-12-05T15:57:03;95292.25;;;5.47;77.18
58879;BME280;44660;42.664;23.266;2022-12-05T15:59:36;95320.72;;;5.59;77.56
58879;BME280;44660;42.664;23.266;2022-12-05T16:02:45;95320.44;;;5.47;78.10
58879;BME280;44660;42.664;23.266;2022-12-05T16:05:19;95321.63;;;5.44;77.95
58879;BME280;44660;42.664;23.266;2022-12-05T16:07:47;95266.47;;;5.14;77.78
58879;BME280;44660;42.664;23.266;2022-12-05T16:10:15;95304.78;;;5.38;77.68
58879;BME280;44660;42.664;23.266;2022-12-05T16:12:42;95309.69;;;5.48;77.75
58879;BME280;44660;42.664;23.266;2022-12-05T16:15:20;95330.44;;;5.51;77.65
58879;BME280;44660;42.664;23.266;2022-12-05T16:17:53;95329.44;;;5.52;78.01